Warning: Javascript must be enabled to use all the features on this page!


Page Loading - Please Wait...

Click to hideNews Bulletins

Peak Streamflow for the Nation

USGS 03112000 WHEELING CREEK AT ELM GROVE, WV

Ohio County, West Virginia
Hydrologic Unit Code 05030106
Latitude  40°02'40", Longitude  80°39'40" NAD27
Drainage area 282  square miles
Gage datum 667.03 feet above NAVD88
Output formats
Table
Graph
Tab-separated file
peakfq (watstore) format
Reselect output format
Water
Year
Date Gage
Height
(feet)
Stream-
flow
(cfs)
1941 1941-06-05 13.08 20,300
1942 1942-03-09 9.10 9,090
1943 1942-12-30 13.67 22,100
1944 1944-03-05 7.95 6,920
1945 1945-03-06 12.67 19,100
1946 1946-06-02 9.75 11,000
1947 1947-06-07 7.23 5,460
1948 1948-02-14 8.45 7,760
1949 1948-12-15 7.38 5,800
1950 1950-01-07 7.95 6,920
1951 1951-01-15 11.62 15,900
1952 1952-01-27 9.22 10,000
1953 1953-05-07 6.77 6,740
1954 1954-04-17 4.39 3,240
1955 1954-10-16 9.90 11,600
1956 1956-07-27 9.05 9,600
1957 1957-04-18 7.78 7,360
1958 1958-05-04 7.23 6,340
1959 1959-02-10 9.87 11,600
1960 1960-02-11 5.78 4,240
1961 1961-04-25 9.53 11,100
1962 1962-02-24 7.73 7,790
1963 1963-03-05 13.50 21,500
1964 1964-03-10 7.97 9,440
1965 1965-02-25 4.62 3,210
1966 1966-02-13 12.661 7,0001
1967 1967-03-06 7.67 8,840
1968 1968-05-24 8.51 10,500
1969 1969-04-19 6.94 7,390
1970 1970-04-02 7.93 9,360
1971 1971-05-06 10.25 14,600
1972 1972-06-23 9.31 12,300
1973 1972-12-09 7.85 9,200
1974 1974-01-11 7.04 7,580
1975 1975-09-24 9.70 13,0005
1976 1976-01-01 5.79 5,2205
1977 1977-04-03 6.67 6,8705
1978 1978-01-26 8.36 10,2005
1979 1979-02-25 8.79 11,1005
1980 1980-08-18 12.32 18,7005
1981 1981-04-13 10.64 15,0005
1982 1982-01-23 6.56 6,8405
1983 1983-02-03 4.86 3,9905
1984 1984-01-25 7.801 9,1205,9
1985 1985-05-31 6.12 6,0805
1986 1985-11-27 13.47 21,4005
1987 1987-04-08 5.76 5,2405
1988 1988-02-02 7.84 9,2005
1989 1989-02-16 5.95 5,6005
1990 1990-06-14 7.32 8,2105
1991 1990-12-18 7.26 8,0905
1992 1991-12-03 7.07 7,7305
1993 1993-03-04 6.23 6,1405
1994 1994-01-28   7,0001,2,5
1995 1995-02-16 4.39 2,7905
1996 1996-01-19 7.00 7,6005
1997 1997-03-02 5.36 4,4805
1998 1998-01-09 5.48 4,7606
1999 1999-01-09 5.08 4,0406
2000 2000-02-19 5.84 5,3906
2001 2001-06-06 5.25 4,3206
2002 2002-06-06 5.55 4,8606
2003 2003-02-23 6.01 5,7206
2004 2004-09-17 13.83 22,3006
2005 2005-01-06 7.84 9,1906
2006 2006-03-14 4.60 3,2606
2007 2007-03-24 5.89 5,4906
2008 2008-03-04 5.95 5,6006
2009 2009-06-18 5.42 4,6206
2010 2010-01-25 6.16 5,9906
2011 2011-02-25 5.84 4,8606
2012 2012-01-27 5.54 4,2906
2013 2013-01-31 5.42 4,0806
2014 2014-02-21 5.87 4,9206
2015 2015-03-04 6.30 5,7206
2016 2016-03-15 5.65 4,5006
2017 2017-07-28 8.26 9,6306
2018 2018-01-12 8.41 9,2606
2019 2019-02-08 7.48 7,4606
2020 2020-03-28 7.91 8,2206
2021 2021-06-30 7.01 6,5606
?
  Peak Gage-Height Qualification Codes.
?
  Peak Streamflow Qualification Codes.